Time;durP1;ratioP1;P1;durP2;ratioP2;P2;SDS_P1;SDS_P2;PMS_P1;PMS_P2;Temp;Humidity;BMP_temperature;BMP_pressure;BME280_temperature;BME280_humidity;BME280_pressure;Samples;Min_cycle;Max_cycle;Signal;HPM_P1;HPM_P2
2022/03/05 00:01:06;;;;;;;29.55;11.40;;;4.30;76.00;;;;;;4990712;28;20753;-71
2022/03/05 00:03:34;;;;;;;30.33;11.38;;;4.10;76.20;;;;;;4991438;28;20048;-71
2022/03/05 00:06:01;;;;;;;29.70;11.55;;;4.10;76.70;;;;;;5008434;28;20078;-71
2022/03/05 00:08:28;;;;;;;31.38;11.32;;;4.10;76.80;;;;;;4988781;28;20158;-71
2022/03/05 00:10:55;;;;;;;31.58;10.40;;;4.20;76.20;;;;;;4991366;28;20080;-71
2022/03/05 00:13:22;;;;;;;30.17;10.35;;;4.20;75.70;;;;;;5005921;28;20095;-71
2022/03/05 00:15:49;;;;;;;28.88;10.45;;;4.30;75.60;;;;;;4991148;28;20073;-71
2022/03/05 00:18:16;;;;;;;31.20;11.57;;;4.20;75.50;;;;;;4991451;28;20551;-70
2022/03/05 00:20:45;;;;;;;29.63;10.77;;;4.10;75.90;;;;;;4992320;28;20050;-71
2022/03/05 00:23:16;;;;;;;30.20;10.73;;;4.20;75.60;;;;;;5004710;28;20049;-71
2022/03/05 00:25:46;;;;;;;25.05;9.18;;;4.20;75.20;;;;;;4993872;28;20044;-71
2022/03/05 00:28:13;;;;;;;31.23;11.20;;;4.30;75.60;;;;;;4989663;28;20204;-71
2022/03/05 00:30:41;;;;;;;25.08;10.13;;;4.40;74.80;;;;;;5005284;28;20139;-70
2022/03/05 00:33:08;;;;;;;24.83;9.73;;;4.30;74.10;;;;;;4991652;28;20042;-71
2022/03/05 00:35:35;;;;;;;30.30;9.32;;;4.20;75.20;;;;;;5004772;28;20949;-71
2022/03/05 00:38:02;;;;;;;27.25;11.00;;;4.30;75.30;;;;;;4987855;28;21116;-71
2022/03/05 00:40:29;;;;;;;35.17;11.80;;;4.10;75.30;;;;;;4989936;28;20133;-71
2022/03/05 00:42:56;;;;;;;25.50;10.90;;;4.10;76.50;;;;;;4991761;28;20053;-71
2022/03/05 00:45:23;;;;;;;26.50;10.07;;;4.10;76.40;;;;;;4992052;28;20040;-70
2022/03/05 00:47:51;;;;;;;31.30;10.00;;;4.10;76.00;;;;;;4990426;28;20042;-71
2022/03/05 00:50:18;;;;;;;27.80;10.32;;;4.10;75.70;;;;;;4991421;28;20529;-71
2022/03/05 00:52:45;;;;;;;27.35;10.30;;;4.00;76.10;;;;;;4989671;28;20051;-71
2022/03/05 00:55:12;;;;;;;34.65;11.05;;;3.80;77.20;;;;;;4990049;28;20152;-70
2022/03/05 00:57:39;;;;;;;27.50;10.55;;;4.10;77.10;;;;;;4992342;28;20045;-71
2022/03/05 01:00:10;;;;;;;30.55;10.38;;;4.10;76.20;;;;;;4989353;28;20062;-71
2022/03/05 01:02:39;;;;;;;29.20;10.45;;;4.10;75.70;;;;;;4992416;28;20050;-71
2022/03/05 01:05:09;;;;;;;24.80;10.60;;;4.00;76.90;;;;;;4990273;28;20584;-71
2022/03/05 01:07:36;;;;;;;27.15;10.02;;;4.10;76.70;;;;;;4972776;28;20513;-71
2022/03/05 01:10:05;;;;;;;27.80;10.00;;;4.20;76.10;;;;;;4992108;28;20081;-70
2022/03/05 01:12:33;;;;;;;28.63;10.45;;;4.00;77.10;;;;;;4987072;28;20753;-70
2022/03/05 01:15:00;;;;;;;30.20;10.45;;;4.10;76.90;;;;;;4988888;28;20120;-70
2022/03/05 01:17:27;;;;;;;33.40;11.32;;;4.20;77.20;;;;;;4991935;28;20057;-71
2022/03/05 01:19:54;;;;;;;31.42;10.50;;;4.20;76.30;;;;;;5005302;28;20074;-71
2022/03/05 01:22:21;;;;;;;35.80;12.35;;;4.10;76.50;;;;;;4992654;28;20493;-71
2022/03/05 01:24:49;;;;;;;36.22;13.18;;;4.10;77.10;;;;;;4988172;28;20597;-70
2022/03/05 01:27:18;;;;;;;42.63;14.48;;;3.80;78.50;;;;;;4989619;28;20054;-71
2022/03/05 01:29:45;;;;;;;37.25;13.48;;;3.50;79.70;;;;;;4989641;28;20049;-71
2022/03/05 01:32:12;;;;;;;38.53;14.00;;;3.30;79.50;;;;;;4992213;28;20041;-71
2022/03/05 01:34:39;;;;;;;33.90;13.40;;;3.60;79.10;;;;;;5005146;28;20057;-71
2022/03/05 01:37:07;;;;;;;36.58;13.05;;;3.80;79.10;;;;;;4991497;28;20057;-71
2022/03/05 01:39:34;;;;;;;36.30;13.38;;;3.90;78.40;;;;;;4980388;28;20120;-71
2022/03/05 01:42:01;;;;;;;36.03;13.85;;;3.90;77.50;;;;;;4990442;28;20125;-71
2022/03/05 01:44:28;;;;;;;38.67;13.38;;;3.90;78.00;;;;;;4988260;28;20054;-70
2022/03/05 01:46:56;;;;;;;35.28;13.15;;;4.00;77.20;;;;;;4986968;28;20042;-71
2022/03/05 01:49:23;;;;;;;42.08;14.57;;;3.90;76.70;;;;;;4988167;28;20038;-71
2022/03/05 01:51:50;;;;;;;41.03;15.60;;;4.00;76.80;;;;;;4989025;28;20056;-71
2022/03/05 01:54:17;;;;;;;42.45;13.38;;;4.00;76.50;;;;;;4991136;28;20692;-71
2022/03/05 01:56:44;;;;;;;37.97;12.93;;;3.90;77.10;;;;;;4990274;28;20929;-71
2022/03/05 01:59:12;;;;;;;35.45;13.23;;;3.60;77.80;;;;;;4973274;28;20049;-71
2022/03/05 02:01:39;;;;;;;33.80;12.50;;;3.70;78.00;;;;;;4989844;28;20382;-71
2022/03/05 02:04:06;;;;;;;32.47;11.77;;;3.80;77.90;;;;;;4987867;28;20061;-71
2022/03/05 02:06:34;;;;;;;35.25;12.02;;;3.70;77.40;;;;;;4992617;28;20098;-71
2022/03/05 02:09:01;;;;;;;29.67;9.98;;;3.50;77.70;;;;;;4990313;28;20038;-71
2022/03/05 02:11:29;;;;;;;31.17;11.85;;;3.60;77.70;;;;;;5005491;28;20510;-71
2022/03/05 02:13:56;;;;;;;28.02;10.45;;;3.60;78.10;;;;;;4990179;28;20907;-71
2022/03/05 02:16:24;;;;;;;33.67;10.82;;;3.40;78.50;;;;;;4988763;28;20506;-71
2022/03/05 02:18:57;;;;;;;29.38;11.00;;;3.30;79.00;;;;;;4987176;28;20141;-70
2022/03/05 02:21:25;;;;;;;29.08;10.27;;;3.40;78.50;;;;;;4972613;28;20061;-71
2022/03/05 02:23:54;;;;;;;32.08;11.27;;;3.40;78.30;;;;;;4989842;28;20648;-70
2022/03/05 02:26:22;;;;;;;30.83;10.25;;;3.40;78.00;;;;;;4986026;28;20705;-71
2022/03/05 02:28:50;;;;;;;36.22;12.13;;;3.10;78.80;;;;;;4987426;28;20124;-70
2022/03/05 02:31:17;;;;;;;34.72;12.23;;;2.90;79.10;;;;;;5006298;28;20094;-70
2022/03/05 02:33:45;;;;;;;37.88;12.55;;;2.90;79.60;;;;;;4989678;28;20034;-71
2022/03/05 02:36:12;;;;;;;35.08;12.10;;;2.70;80.10;;;;;;4988151;28;20429;-71
2022/03/05 02:38:39;;;;;;;38.13;13.43;;;2.70;80.30;;;;;;4975461;28;20595;-70
2022/03/05 02:41:06;;;;;;;34.67;12.20;;;2.80;79.90;;;;;;5005434;28;20132;-71
2022/03/05 02:43:36;;;;;;;35.22;13.07;;;2.90;79.30;;;;;;4990985;28;20108;-70
2022/03/05 02:46:03;;;;;;;29.08;11.80;;;3.00;78.70;;;;;;4990159;28;20044;-71
2022/03/05 02:48:33;;;;;;;37.50;12.40;;;3.00;78.30;;;;;;4989630;28;20042;-71
2022/03/05 02:51:00;;;;;;;28.83;10.48;;;2.80;79.10;;;;;;4985788;28;20069;-71
2022/03/05 02:53:29;;;;;;;41.45;12.77;;;2.90;79.10;;;;;;4990213;28;20409;-70
2022/03/05 02:55:56;;;;;;;37.90;12.50;;;2.90;78.60;;;;;;4990349;28;20457;-70
2022/03/05 02:58:23;;;;;;;34.05;11.63;;;3.00;78.80;;;;;;4986980;28;20234;-71
2022/03/05 03:00:50;;;;;;;34.83;11.10;;;3.10;78.30;;;;;;4988206;28;20046;-71
2022/03/05 03:03:18;;;;;;;35.38;12.07;;;3.10;77.70;;;;;;4993757;28;20132;-70
2022/03/05 03:05:46;;;;;;;37.50;12.13;;;2.90;78.80;;;;;;4989403;28;20528;-71
2022/03/05 03:08:13;;;;;;;32.28;10.63;;;2.80;79.50;;;;;;4987912;28;20074;-71
2022/03/05 03:10:40;;;;;;;31.00;11.13;;;2.80;79.70;;;;;;4986479;28;20060;-71
2022/03/05 03:13:07;;;;;;;34.58;11.52;;;3.10;79.10;;;;;;4969245;28;20051;-70
2022/03/05 03:15:34;;;;;;;26.23;10.70;;;3.00;79.30;;;;;;5009690;28;20057;-70
2022/03/05 03:18:01;;;;;;;39.55;12.00;;;3.10;79.30;;;;;;4992140;28;20557;-71
2022/03/05 03:20:28;;;;;;;29.85;11.25;;;3.00;79.50;;;;;;5009141;28;20053;-71
2022/03/05 03:22:55;;;;;;;38.03;12.93;;;2.90;79.80;;;;;;4992285;28;20183;-71
2022/03/05 03:25:23;;;;;;;36.72;12.10;;;2.80;79.80;;;;;;4972735;28;20050;-71
2022/03/05 03:27:52;;;;;;;30.85;11.88;;;3.00;79.40;;;;;;4991923;28;20505;-70
2022/03/05 03:30:19;;;;;;;32.55;12.30;;;2.90;79.50;;;;;;5009871;28;20048;-70
2022/03/05 03:32:48;;;;;;;35.60;11.88;;;2.90;79.70;;;;;;4991155;28;20077;-71
2022/03/05 03:35:16;;;;;;;33.58;12.60;;;2.80;80.40;;;;;;4994788;28;20056;-70
2022/03/05 03:37:44;;;;;;;37.67;12.63;;;2.80;80.60;;;;;;4972498;28;20675;-71
2022/03/05 03:40:14;;;;;;;41.85;12.68;;;2.80;80.50;;;;;;4994443;28;20046;-70
2022/03/05 03:42:42;;;;;;;29.92;12.23;;;2.60;81.10;;;;;;4991106;28;20141;-71
2022/03/05 03:45:10;;;;;;;35.47;13.35;;;2.40;82.50;;;;;;4991103;28;20072;-70
2022/03/05 03:47:38;;;;;;;36.00;12.38;;;2.30;83.00;;;;;;4993563;28;20050;-70
2022/03/05 03:50:06;;;;;;;41.92;13.90;;;2.30;83.60;;;;;;4993522;28;20136;-71
2022/03/05 03:52:33;;;;;;;41.50;13.40;;;2.40;84.30;;;;;;4992553;28;20068;-71
2022/03/05 03:55:03;;;;;;;41.85;13.05;;;2.70;82.80;;;;;;4993064;28;20039;-71
2022/03/05 03:57:30;;;;;;;36.08;14.18;;;3.00;82.00;;;;;;5006012;28;20045;-70
2022/03/05 03:59:58;;;;;;;42.17;13.18;;;3.00;81.80;;;;;;4998270;28;20053;-71
2022/03/05 04:02:25;;;;;;;29.50;11.63;;;3.10;81.20;;;;;;4991759;28;20088;-72
2022/03/05 04:04:52;;;;;;;34.50;12.30;;;3.00;81.40;;;;;;5007092;28;20038;-71
2022/03/05 04:10:05;;;;;;;39.88;13.13;;;3.20;80.80;;;;;;4992552;28;20192;-71
2022/03/05 04:12:32;;;;;;;33.42;12.98;;;3.20;80.70;;;;;;4991340;28;20655;-71
2022/03/05 04:14:59;;;;;;;38.10;12.98;;;3.20;80.60;;;;;;5004708;28;20058;-71
2022/03/05 04:17:29;;;;;;;31.80;11.85;;;3.30;80.90;;;;;;4991177;28;20462;-71
2022/03/05 04:19:56;;;;;;;34.63;13.50;;;3.20;80.70;;;;;;5008707;28;20046;-71
2022/03/05 04:22:24;;;;;;;35.47;11.88;;;3.00;81.90;;;;;;4992122;28;20119;-70
2022/03/05 04:24:51;;;;;;;38.05;13.73;;;3.00;81.80;;;;;;5006679;28;20045;-70
2022/03/05 04:27:18;;;;;;;37.80;14.30;;;3.00;81.50;;;;;;4989586;28;20131;-71
2022/03/05 04:29:45;;;;;;;38.80;13.10;;;3.00;82.10;;;;;;4994212;28;20046;-71
2022/03/05 04:32:12;;;;;;;38.50;13.90;;;2.90;82.60;;;;;;5005921;28;20896;-71
2022/03/05 04:34:40;;;;;;;43.38;14.50;;;2.90;82.20;;;;;;4990076;28;20804;-71
2022/03/05 04:37:08;;;;;;;50.13;18.40;;;2.90;81.70;;;;;;4991666;28;20504;-70
2022/03/05 04:39:35;;;;;;;61.13;19.60;;;2.90;81.80;;;;;;4990274;28;20053;-70
2022/03/05 04:42:03;;;;;;;50.53;19.05;;;2.90;81.90;;;;;;5002863;28;20042;-71
2022/03/05 04:44:30;;;;;;;57.70;21.10;;;3.00;81.50;;;;;;4990617;28;20058;-71
2022/03/05 04:46:57;;;;;;;53.33;19.85;;;3.10;81.30;;;;;;4990486;28;20135;-71
2022/03/05 04:49:25;;;;;;;50.42;18.90;;;3.10;80.80;;;;;;4992678;28;20063;-71
2022/03/05 04:51:52;;;;;;;40.90;15.35;;;3.10;81.50;;;;;;4991659;28;20501;-70
2022/03/05 04:54:19;;;;;;;37.15;16.42;;;3.00;81.80;;;;;;4990932;28;20046;-70
2022/03/05 04:56:47;;;;;;;39.55;14.77;;;3.00;82.70;;;;;;4989344;28;20052;-71
2022/03/05 04:59:14;;;;;;;40.58;14.40;;;3.10;82.10;;;;;;4989498;28;20119;-71
2022/03/05 05:01:41;;;;;;;35.70;13.63;;;3.10;82.10;;;;;;4989083;28;20716;-71
2022/03/05 05:04:08;;;;;;;35.28;14.10;;;3.20;81.80;;;;;;4997820;28;20046;-71
2022/03/05 05:06:35;;;;;;;37.58;15.15;;;3.40;81.20;;;;;;4989155;28;20119;-71
2022/03/05 05:09:02;;;;;;;32.78;11.90;;;3.60;80.40;;;;;;4994597;28;20289;-71
2022/03/05 05:11:29;;;;;;;32.50;12.18;;;3.60;79.40;;;;;;4991595;28;20048;-71
2022/03/05 05:13:57;;;;;;;31.42;12.93;;;3.60;79.10;;;;;;4975732;28;20049;-71
2022/03/05 05:16:24;;;;;;;35.95;11.02;;;3.50;79.60;;;;;;5003450;28;20050;-71
2022/03/05 05:21:37;;;;;;;38.95;12.98;;;3.40;80.30;;;;;;4990237;28;20045;-71
2022/03/05 05:24:04;;;;;;;30.52;13.32;;;3.50;80.30;;;;;;4990821;28;21060;-70
2022/03/05 05:26:31;;;;;;;32.40;13.07;;;3.50;79.80;;;;;;4990797;28;20128;-70
2022/03/05 05:28:58;;;;;;;33.60;12.60;;;3.50;79.60;;;;;;5004750;28;20466;-70
2022/03/05 05:31:25;;;;;;;36.95;13.65;;;3.50;79.90;;;;;;4997266;28;20035;-70
2022/03/05 05:33:53;;;;;;;39.88;14.40;;;3.70;79.10;;;;;;4985896;28;20061;-71
2022/03/05 05:36:20;;;;;;;32.30;13.77;;;3.70;79.40;;;;;;4990291;28;20144;-71
2022/03/05 05:38:47;;;;;;;37.40;15.27;;;3.50;80.00;;;;;;4988451;28;20061;-70
2022/03/05 05:41:16;;;;;;;40.95;14.85;;;3.40;80.10;;;;;;5008972;28;20042;-70
2022/03/05 05:43:43;;;;;;;44.42;15.77;;;3.30;80.70;;;;;;4988523;28;20862;-71
2022/03/05 05:46:13;;;;;;;40.75;16.55;;;3.30;81.40;;;;;;4989763;28;20057;-71
2022/03/05 05:48:53;;;;;;;;;;;3.40;81.30;;;;;;4991033;28;20058;-71
2022/03/05 05:51:20;;;;;;;33.50;13.00;;;3.50;81.00;;;;;;4989412;28;19953;-70
2022/03/05 05:53:53;;;;;;;39.03;15.52;;;3.50;80.90;;;;;;4990827;28;20050;-70
2022/03/05 05:56:21;;;;;;;40.45;14.30;;;3.50;81.00;;;;;;4989403;28;20129;-71
2022/03/05 05:58:49;;;;;;;38.22;14.75;;;3.40;81.00;;;;;;4992517;28;20045;-70
2022/03/05 06:01:17;;;;;;;36.95;14.93;;;3.40;81.30;;;;;;4991846;28;20049;-71
2022/03/05 06:03:45;;;;;;;31.70;12.35;;;3.40;80.70;;;;;;5005994;28;20638;-71
2022/03/05 06:06:12;;;;;;;37.15;12.32;;;3.40;80.70;;;;;;4986930;28;20034;-70
2022/03/05 06:08:40;;;;;;;35.30;12.73;;;3.60;80.60;;;;;;4987452;28;20053;-70
2022/03/05 06:11:07;;;;;;;30.20;12.10;;;3.80;79.50;;;;;;4989136;28;20560;-71
2022/03/05 06:13:34;;;;;;;32.33;12.95;;;3.80;78.70;;;;;;4990168;28;20038;-71
2022/03/05 06:16:01;;;;;;;30.63;12.25;;;3.70;78.70;;;;;;4991579;28;20133;-71
2022/03/05 06:18:29;;;;;;;31.77;12.77;;;3.80;78.50;;;;;;4991231;28;20037;-70
2022/03/05 06:20:56;;;;;;;27.58;11.40;;;4.00;77.70;;;;;;5008296;28;20571;-70
2022/03/05 06:23:23;;;;;;;25.27;10.82;;;4.10;77.00;;;;;;4985615;28;20074;-71
2022/03/05 06:25:51;;;;;;;30.13;12.15;;;4.10;76.70;;;;;;4989291;28;20569;-71
2022/03/05 06:28:19;;;;;;;25.38;11.65;;;4.10;76.50;;;;;;4989957;28;20118;-71
2022/03/05 06:30:46;;;;;;;37.45;12.73;;;4.10;76.30;;;;;;4987653;28;20402;-71
2022/03/05 06:33:13;;;;;;;27.27;11.52;;;4.10;76.50;;;;;;4991422;28;20046;-71
2022/03/05 06:35:40;;;;;;;24.60;10.88;;;4.20;75.90;;;;;;5004270;28;20095;-71
2022/03/05 06:38:07;;;;;;;27.15;11.20;;;4.20;75.50;;;;;;5003103;28;20054;-71
2022/03/05 06:40:35;;;;;;;23.45;9.07;;;4.30;75.10;;;;;;4972726;28;20167;-70
2022/03/05 06:43:02;;;;;;;30.33;10.65;;;4.30;74.60;;;;;;4988860;28;20661;-71
2022/03/05 06:45:29;;;;;;;26.88;10.20;;;4.30;74.60;;;;;;4987955;28;20034;-71
2022/03/05 06:47:57;;;;;;;24.27;8.75;;;4.40;74.20;;;;;;4989388;28;20046;-71
2022/03/05 06:50:24;;;;;;;18.73;7.78;;;4.50;73.30;;;;;;4995794;28;20125;-71
2022/03/05 06:52:51;;;;;;;25.20;7.88;;;4.50;73.00;;;;;;4994385;28;20046;-71
2022/03/05 06:55:24;;;;;;;20.58;8.20;;;4.60;72.70;;;;;;4992554;28;20050;-71
2022/03/05 06:57:52;;;;;;;24.67;9.27;;;4.60;72.50;;;;;;4994180;28;20181;-71
2022/03/05 07:00:20;;;;;;;21.55;8.20;;;4.80;71.90;;;;;;4991065;28;20505;-71
2022/03/05 07:02:47;;;;;;;22.27;8.23;;;4.80;71.70;;;;;;4991882;28;20060;-70
2022/03/05 07:05:15;;;;;;;18.75;7.50;;;4.80;71.90;;;;;;4997260;28;20152;-71
2022/03/05 07:07:43;;;;;;;19.67;8.23;;;4.80;72.20;;;;;;4995407;28;20476;-71
2022/03/05 07:10:10;;;;;;;20.13;7.85;;;4.90;71.90;;;;;;4995128;28;20133;-71
2022/03/05 07:12:37;;;;;;;21.33;8.30;;;5.10;71.30;;;;;;4997895;28;20041;-71
2022/03/05 07:15:05;;;;;;;20.02;7.75;;;5.20;70.70;;;;;;4994853;28;20052;-71
2022/03/05 07:17:32;;;;;;;18.23;6.90;;;5.30;69.90;;;;;;4995086;28;20046;-71
2022/03/05 07:19:59;;;;;;;23.95;8.55;;;5.20;70.70;;;;;;5010437;28;20050;-71
2022/03/05 07:22:26;;;;;;;24.25;8.15;;;5.10;70.60;;;;;;4995518;28;20084;-70
2022/03/05 07:24:53;;;;;;;23.98;7.88;;;5.10;70.80;;;;;;4997325;28;20104;-71
2022/03/05 07:27:20;;;;;;;21.95;7.85;;;5.20;70.30;;;;;;4996555;28;20762;-71
2022/03/05 07:29:47;;;;;;;24.25;8.05;;;5.30;70.10;;;;;;4993681;28;20052;-71
2022/03/05 07:32:14;;;;;;;16.80;7.55;;;5.40;70.00;;;;;;4996807;28;20042;-72
2022/03/05 07:34:41;;;;;;;18.40;7.38;;;5.40;70.40;;;;;;4977545;28;20525;-71
2022/03/05 07:37:08;;;;;;;20.17;7.65;;;5.50;69.70;;;;;;4997850;28;20042;-71
2022/03/05 07:39:35;;;;;;;21.63;8.02;;;5.50;70.00;;;;;;4996863;28;20533;-71
2022/03/05 07:42:04;;;;;;;20.70;7.28;;;5.40;70.10;;;;;;4994736;28;20791;-71
2022/03/05 07:44:32;;;;;;;22.80;7.68;;;5.50;70.10;;;;;;4994554;28;20418;-71
2022/03/05 07:47:00;;;;;;;16.85;6.80;;;5.50;69.90;;;;;;4995743;28;20760;-71
2022/03/05 07:49:28;;;;;;;17.05;6.80;;;5.50;70.00;;;;;;5011693;28;20104;-71
2022/03/05 07:51:58;;;;;;;17.92;5.95;;;5.40;70.50;;;;;;4991842;28;20042;-71
2022/03/05 07:54:27;;;;;;;20.88;7.20;;;5.40;70.60;;;;;;4995653;28;20046;-71
2022/03/05 07:56:54;;;;;;;19.58;6.60;;;5.60;70.40;;;;;;4992830;28;20386;-71
2022/03/05 07:59:21;;;;;;;21.00;7.80;;;5.50;70.60;;;;;;4994163;28;20050;-71
2022/03/05 08:01:48;;;;;;;16.00;7.60;;;5.60;70.40;;;;;;5005718;28;20144;-71
2022/03/05 08:04:16;;;;;;;17.27;6.97;;;5.70;70.30;;;;;;4997612;28;20046;-71
2022/03/05 08:06:43;;;;;;;15.85;6.65;;;5.80;69.80;;;;;;4991868;28;20211;-71
2022/03/05 08:09:10;;;;;;;16.55;6.40;;;5.80;70.00;;;;;;5006233;28;20061;-72
2022/03/05 08:11:37;;;;;;;16.50;6.03;;;5.80;69.70;;;;;;4991431;28;20038;-71
2022/03/05 08:14:04;;;;;;;17.00;6.38;;;5.80;69.90;;;;;;4990848;28;20045;-71
2022/03/05 08:16:32;;;;;;;15.32;6.03;;;5.80;69.60;;;;;;4989844;28;20056;-71
2022/03/05 08:19:00;;;;;;;15.90;5.57;;;5.90;70.30;;;;;;5005554;28;20042;-71
2022/03/05 08:21:27;;;;;;;17.80;6.55;;;5.80;70.20;;;;;;4989430;28;20564;-71
2022/03/05 08:23:56;;;;;;;17.45;6.40;;;5.90;70.10;;;;;;4988097;28;20081;-72
2022/03/05 08:26:23;;;;;;;18.08;6.55;;;5.90;70.20;;;;;;5008560;28;20045;-71
2022/03/05 08:28:50;;;;;;;16.45;6.75;;;6.00;69.90;;;;;;4990333;28;20093;-71
2022/03/05 08:31:17;;;;;;;15.15;6.43;;;6.00;69.90;;;;;;4991017;28;20121;-71
2022/03/05 08:33:44;;;;;;;17.20;7.38;;;6.20;70.10;;;;;;4992084;28;20044;-71
2022/03/05 08:36:11;;;;;;;16.35;6.68;;;6.30;69.50;;;;;;4988291;28;20049;-71
2022/03/05 08:38:40;;;;;;;12.93;5.63;;;6.40;68.60;;;;;;4974122;28;20050;-71
2022/03/05 08:41:07;;;;;;;13.88;5.45;;;6.50;67.90;;;;;;4987287;28;20046;-71
2022/03/05 08:43:35;;;;;;;13.02;4.47;;;6.60;67.50;;;;;;4989173;28;20073;-71
2022/03/05 08:46:04;;;;;;;14.30;5.45;;;6.70;66.90;;;;;;4990824;28;20046;-72
2022/03/05 08:48:31;;;;;;;14.95;4.80;;;6.70;67.30;;;;;;4989716;28;20049;-72
2022/03/05 08:50:58;;;;;;;15.02;5.50;;;6.60;66.40;;;;;;4991887;28;20130;-72
2022/03/05 08:53:25;;;;;;;14.73;5.07;;;6.70;66.60;;;;;;4987813;28;20038;-71
2022/03/05 08:55:52;;;;;;;13.00;4.50;;;6.90;65.50;;;;;;5003174;28;20052;-71
2022/03/05 08:58:20;;;;;;;15.65;6.20;;;7.00;65.50;;;;;;4998568;28;20951;-72
2022/03/05 09:00:48;;;;;;;13.25;4.22;;;7.00;65.10;;;;;;4990831;28;20171;-72
2022/03/05 09:03:17;;;;;;;14.20;4.75;;;7.10;64.40;;;;;;4973119;28;20049;-72
2022/03/05 09:05:46;;;;;;;13.07;4.40;;;7.20;65.00;;;;;;4988480;28;20033;-71
2022/03/05 09:08:14;;;;;;;9.80;3.53;;;7.30;64.40;;;;;;4972748;28;20054;-72
2022/03/05 09:10:41;;;;;;;12.20;4.13;;;7.40;62.40;;;;;;4987031;28;20092;-73
2022/03/05 09:13:09;;;;;;;10.52;4.65;;;7.40;61.80;;;;;;4988648;28;20112;-71
2022/03/05 09:15:36;;;;;;;10.60;3.67;;;7.50;62.10;;;;;;4988895;28;20109;-71
2022/03/05 09:18:03;;;;;;;9.35;3.97;;;7.60;60.70;;;;;;4989042;28;20497;-71
2022/03/05 09:20:31;;;;;;;9.65;3.42;;;7.60;61.20;;;;;;4991281;28;20050;-71
2022/03/05 09:22:58;;;;;;;10.07;4.40;;;7.80;59.90;;;;;;4986461;28;20042;-71
2022/03/05 09:25:26;;;;;;;9.20;3.70;;;8.00;59.80;;;;;;4988524;28;20069;-71
2022/03/05 09:27:53;;;;;;;10.65;3.80;;;8.10;58.10;;;;;;4993779;28;21136;-71
2022/03/05 09:30:20;;;;;;;8.90;2.95;;;8.20;57.40;;;;;;4985445;28;20053;-71
2022/03/05 09:32:48;;;;;;;11.48;3.75;;;8.20;57.20;;;;;;4987836;28;20580;-71
2022/03/05 09:35:15;;;;;;;13.70;3.13;;;8.20;57.40;;;;;;4988444;28;20145;-71
2022/03/05 09:37:42;;;;;;;8.77;3.35;;;8.40;57.20;;;;;;4989492;28;20485;-71
2022/03/05 09:40:11;;;;;;;8.93;4.03;;;8.40;56.40;;;;;;4990298;28;20044;-71
2022/03/05 09:42:44;;;;;;;10.48;3.22;;;8.50;56.10;;;;;;4988698;28;20797;-72
2022/03/05 09:45:13;;;;;;;10.82;3.47;;;8.50;55.70;;;;;;4986588;28;20033;-72
2022/03/05 09:47:42;;;;;;;8.88;3.15;;;8.30;56.30;;;;;;4989938;28;20042;-72
2022/03/05 09:50:10;;;;;;;10.32;4.05;;;8.30;55.70;;;;;;5004899;28;20116;-72
2022/03/05 09:52:37;;;;;;;9.68;3.72;;;8.40;55.70;;;;;;4988212;28;20069;-72
2022/03/05 09:55:06;;;;;;;10.85;3.97;;;8.30;55.50;;;;;;4989438;28;22383;-72
2022/03/05 09:57:33;;;;;;;7.95;3.55;;;8.30;55.30;;;;;;5005544;28;20069;-72
2022/03/05 10:00:01;;;;;;;9.07;3.05;;;8.20;55.30;;;;;;4989955;28;20597;-71
2022/03/05 10:02:30;;;;;;;11.35;4.50;;;8.10;56.20;;;;;;4984708;28;20149;-71
2022/03/05 10:05:37;;;;;;;11.38;4.55;;;8.20;56.30;;;;;;4988219;28;20042;-71
2022/03/05 10:08:20;;;;;;;11.77;4.22;;;8.30;57.20;;;;;;4914101;28;20052;-71
2022/03/05 10:10:56;;;;;;;10.93;3.80;;;8.40;56.60;;;;;;4899649;29;20253;-71
2022/03/05 10:13:33;;;;;;;10.32;4.15;;;8.40;55.10;;;;;;4959269;28;20048;-71
2022/03/05 10:16:06;;;;;;;11.23;3.58;;;8.50;55.40;;;;;;4989931;28;20120;-71
2022/03/05 10:18:39;;;;;;;10.57;3.70;;;8.50;55.90;;;;;;4989438;28;20093;-71
2022/03/05 10:21:08;;;;;;;10.60;3.45;;;8.70;55.60;;;;;;4989016;28;20049;-71
2022/03/05 10:23:37;;;;;;;11.38;4.47;;;8.90;54.80;;;;;;5004440;28;20125;-71
2022/03/05 10:26:07;;;;;;;10.73;4.60;;;8.70;54.50;;;;;;4985667;28;20482;-71
2022/03/05 10:28:37;;;;;;;13.18;5.10;;;8.60;55.60;;;;;;4987181;28;20038;-71
2022/03/05 10:31:12;;;;;;;11.68;3.75;;;8.50;55.70;;;;;;5003838;28;20049;-71
2022/03/05 10:33:45;;;;;;;11.15;4.55;;;8.50;55.10;;;;;;4988055;28;20557;-71
2022/03/05 10:36:20;;;;;;;10.75;3.58;;;8.70;54.50;;;;;;5003417;28;20597;-71
2022/03/05 10:38:53;;;;;;;10.10;4.40;;;8.50;54.80;;;;;;4987109;28;20302;-71
2022/03/05 10:41:33;;;;;;;8.55;3.17;;;8.50;55.10;;;;;;4986558;28;20078;-71
2022/03/05 10:44:11;;;;;;;10.45;3.75;;;8.60;54.30;;;;;;4990247;28;20528;-71
2022/03/05 10:46:42;;;;;;;10.82;3.50;;;8.60;55.10;;;;;;4971695;28;21361;-72
2022/03/05 10:49:16;;;;;;;8.00;2.88;;;8.70;53.80;;;;;;4988621;28;20125;-71
2022/03/05 10:51:52;;;;;;;10.45;4.00;;;8.60;53.30;;;;;;4989111;28;20972;-72
2022/03/05 10:54:37;;;;;;;9.85;3.20;;;8.60;53.40;;;;;;5002672;28;20108;-72
2022/03/05 10:57:15;;;;;;;10.10;4.10;;;8.40;53.30;;;;;;4987396;28;20158;-72
2022/03/05 10:59:44;;;;;;;12.25;4.53;;;8.30;54.30;;;;;;4991151;28;20038;-73
2022/03/05 11:02:14;;;;;;;15.80;5.57;;;8.30;54.70;;;;;;4990494;28;20046;-72
2022/03/05 11:04:45;;;;;;;11.27;4.57;;;8.30;54.60;;;;;;4986619;28;20096;-72
2022/03/05 11:07:16;;;;;;;9.68;4.78;;;8.20;54.60;;;;;;5004718;28;20088;-72
2022/03/05 11:09:43;;;;;;;14.38;4.63;;;8.20;54.80;;;;;;5003556;28;20050;-71
2022/03/05 11:12:21;;;;;;;10.25;4.30;;;8.10;55.10;;;;;;4968920;28;20124;-71
2022/03/05 11:14:51;;;;;;;12.32;5.45;;;8.00;55.40;;;;;;4987530;28;20049;-71
2022/03/05 11:17:19;;;;;;;10.93;4.03;;;8.00;56.00;;;;;;4986632;28;20101;-71
2022/03/05 11:19:47;;;;;;;9.45;3.83;;;8.10;56.50;;;;;;4990106;28;20113;-70
2022/03/05 11:22:15;;;;;;;10.95;4.18;;;8.40;56.20;;;;;;4987409;28;20049;-71
2022/03/05 11:24:44;;;;;;;9.75;3.75;;;8.60;55.40;;;;;;4987279;28;20046;-71
2022/03/05 11:27:15;;;;;;;11.32;3.92;;;8.70;55.40;;;;;;4984116;28;20049;-71
2022/03/05 11:29:58;;;;;;;9.93;4.15;;;8.90;55.30;;;;;;4999273;28;20437;-72
2022/03/05 11:32:33;;;;;;;13.05;4.45;;;8.80;53.80;;;;;;4988698;28;20413;-71
2022/03/05 11:35:16;;;;;;;9.02;3.70;;;8.60;54.00;;;;;;4988327;28;20144;-71
2022/03/05 11:37:44;;;;;;;;;;;8.70;53.90;;;;;;5006621;28;20053;-72
2022/03/05 11:40:30;;;;;;;11.30;4.05;;;8.50;53.50;;;;;;4971267;28;19957;-72
2022/03/05 11:43:24;;;;;;;11.70;4.10;;;8.60;53.40;;;;;;4991725;28;20057;-73
2022/03/05 11:46:01;;;;;;;9.98;3.90;;;8.50;53.50;;;;;;4971315;28;20705;-72
2022/03/05 11:48:38;;;;;;;9.52;3.80;;;8.60;52.50;;;;;;4986503;28;20049;-72
2022/03/05 11:51:17;;;;;;;8.35;3.53;;;8.70;52.10;;;;;;4985479;28;23646;-71
2022/03/05 11:53:44;;;;;;;9.25;3.03;;;8.80;51.90;;;;;;4988993;28;20037;-72
2022/03/05 11:56:25;;;;;;;10.82;4.00;;;8.80;51.50;;;;;;4989708;28;20034;-71
2022/03/05 11:58:53;;;;;;;7.60;3.83;;;9.00;50.30;;;;;;4988194;28;20120;-71
2022/03/05 12:01:39;;;;;;;9.90;3.35;;;9.00;50.30;;;;;;4983964;28;20710;-72
2022/03/05 12:04:22;;;;;;;7.25;2.80;;;8.80;50.40;;;;;;4986540;28;20484;-71
2022/03/05 12:06:54;;;;;;;;;;;8.80;50.40;;;;;;4990075;28;20498;-71
2022/03/05 12:09:34;;;;;;;7.90;2.40;;;8.80;50.40;;;;;;4993614;28;19932;-71
2022/03/05 12:12:09;;;;;;;6.90;2.83;;;8.60;50.40;;;;;;5003394;28;20108;-72
2022/03/05 12:14:55;;;;;;;6.03;2.85;;;8.60;50.50;;;;;;4993319;28;20042;-71
2022/03/05 12:17:23;;;;;;;7.78;2.95;;;8.50;50.60;;;;;;5003118;28;20616;-71
2022/03/05 12:19:51;;;;;;;7.43;3.13;;;8.60;51.10;;;;;;4992122;28;20069;-71
2022/03/05 12:22:19;;;;;;;5.47;2.42;;;8.70;50.70;;;;;;4994070;28;20056;-71
2022/03/05 12:24:46;;;;;;;4.82;2.00;;;8.70;49.80;;;;;;5001774;28;20092;-71
2022/03/05 12:27:15;;;;;;;5.10;2.53;;;8.70;49.70;;;;;;4986265;28;20038;-71
2022/03/05 12:29:49;;;;;;;7.05;2.95;;;8.70;49.80;;;;;;4989585;28;23423;-71
2022/03/05 12:32:17;;;;;;;7.13;3.00;;;8.70;49.90;;;;;;4974237;28;20512;-71
2022/03/05 12:34:45;;;;;;;8.32;3.15;;;8.70;50.50;;;;;;4994620;28;21122;-71
2022/03/05 12:37:12;;;;;;;7.30;2.85;;;8.80;50.00;;;;;;5003001;28;20177;-72
2022/03/05 12:39:43;;;;;;;7.20;2.30;;;8.70;49.90;;;;;;4989205;28;21121;-71
2022/03/05 12:42:12;;;;;;;4.40;2.05;;;8.70;50.00;;;;;;4991893;28;20109;-71
2022/03/05 12:44:40;;;;;;;6.72;2.22;;;8.70;49.80;;;;;;4990255;28;20515;-71
2022/03/05 12:47:07;;;;;;;8.10;2.88;;;8.60;50.20;;;;;;4994037;28;20038;-71
2022/03/05 12:49:34;;;;;;;6.82;2.78;;;8.50;50.10;;;;;;4989572;28;20159;-71
2022/03/05 12:52:01;;;;;;;9.43;2.83;;;8.50;50.60;;;;;;4969186;28;20078;-71
2022/03/05 12:54:28;;;;;;;6.82;2.22;;;8.60;50.20;;;;;;4992290;28;20445;-71
2022/03/05 12:56:57;;;;;;;9.55;3.30;;;8.60;49.70;;;;;;4991749;28;20128;-71